createdAt,value
2023-02-05T00:00:52.773Z,4.17
2023-02-05T00:03:22.618Z,2.02
2023-02-05T00:05:52.135Z,2.67
2023-02-05T00:08:21.611Z,2.73
2023-02-05T00:10:54.078Z,2.27
2023-02-05T00:13:25.745Z,1.90
2023-02-05T00:15:55.248Z,4.00
2023-02-05T00:18:25.071Z,2.47
2023-02-05T00:20:54.746Z,2.53
2023-02-05T00:23:24.536Z,2.55
2023-02-05T00:25:54.035Z,2.37
2023-02-05T00:28:23.640Z,2.03
2023-02-05T00:30:54.422Z,2.00
2023-02-05T00:33:24.183Z,3.53
2023-02-05T00:35:53.844Z,3.07
2023-02-05T00:38:23.784Z,2.20
2023-02-05T00:40:53.275Z,2.57
2023-02-05T00:43:25.187Z,2.57
2023-02-05T00:45:55.140Z,4.27
2023-02-05T00:48:24.758Z,3.20
2023-02-05T00:50:55.035Z,2.97
2023-02-05T00:53:31.388Z,2.47
2023-02-05T00:56:05.930Z,2.00
2023-02-05T00:58:37.295Z,1.20
2023-02-05T01:01:07.184Z,1.73
2023-02-05T01:03:36.801Z,1.77
2023-02-05T01:06:07.029Z,2.37
2023-02-05T01:08:36.684Z,2.00
2023-02-05T01:11:10.339Z,2.23
2023-02-05T01:13:40.308Z,3.67
2023-02-05T01:16:10.716Z,2.17
2023-02-05T01:18:41.294Z,1.57
2023-02-05T01:21:11.061Z,2.92
2023-02-05T01:23:41.053Z,1.63
2023-02-05T01:26:10.839Z,2.20
2023-02-05T01:28:40.336Z,1.83
2023-02-05T01:31:10.794Z,1.97
2023-02-05T01:33:41.901Z,3.83
2023-02-05T01:36:11.736Z,2.47
2023-02-05T01:38:41.289Z,2.67
2023-02-05T01:41:12.235Z,2.33
2023-02-05T01:46:19.496Z,1.65
2023-02-05T01:48:52.212Z,2.00
2023-02-05T01:51:22.775Z,2.23
2023-02-05T01:53:54.461Z,1.90
2023-02-05T01:56:33.215Z,1.93
2023-02-05T01:59:09.553Z,2.30
2023-02-05T02:01:41.939Z,2.97
2023-02-05T02:04:14.814Z,2.47
2023-02-05T02:06:44.336Z,2.00
2023-02-05T02:09:14.204Z,1.70
2023-02-05T02:11:45.151Z,1.70
2023-02-05T02:14:16.510Z,2.90
2023-02-05T02:16:46.885Z,1.77
2023-02-05T02:19:25.371Z,1.80
2023-02-05T02:22:13.100Z,2.60
2023-02-05T02:24:45.801Z,2.73
2023-02-05T02:27:43.146Z,2.63
2023-02-05T02:30:25.422Z,4.00
2023-02-05T02:33:15.951Z,3.00
2023-02-05T02:35:54.590Z,2.40
2023-02-05T02:38:33.028Z,2.13
2023-02-05T02:41:06.673Z,1.33
2023-02-05T02:43:39.397Z,1.57
2023-02-05T02:46:12.298Z,1.80
2023-02-05T02:48:43.985Z,1.50
2023-02-05T02:51:15.730Z,2.20
2023-02-05T02:53:48.399Z,1.90
2023-02-05T02:56:20.386Z,2.15
2023-02-05T02:58:56.201Z,1.80
2023-02-05T03:01:29.164Z,1.57
2023-02-05T03:04:04.702Z,1.97
2023-02-05T03:06:36.487Z,2.40
2023-02-05T03:09:16.059Z,1.97
2023-02-05T03:11:46.033Z,4.43
2023-02-05T03:14:16.006Z,4.25
2023-02-05T03:16:45.902Z,2.67
2023-02-05T03:19:15.823Z,1.67
2023-02-05T03:24:18.010Z,1.15
2023-02-05T03:26:47.772Z,1.80
2023-02-05T03:29:30.719Z,1.53
2023-02-05T03:32:16.943Z,1.20
2023-02-05T03:35:23.265Z,1.37
2023-02-05T03:38:08.907Z,2.47
2023-02-05T03:40:50.759Z,1.87
2023-02-05T03:43:30.405Z,1.50
2023-02-05T03:46:06.064Z,2.53
2023-02-05T03:49:01.819Z,2.30
2023-02-05T03:51:46.864Z,2.10
2023-02-05T03:54:39.310Z,4.45
2023-02-05T03:57:16.344Z,4.77
2023-02-05T03:59:48.634Z,3.80
2023-02-05T04:02:20.524Z,3.60
2023-02-05T04:04:50.277Z,2.30
2023-02-05T04:07:21.707Z,2.95
2023-02-05T04:09:51.352Z,3.13
2023-02-05T04:12:25.303Z,1.80
2023-02-05T04:14:55.226Z,2.23
2023-02-05T04:17:24.878Z,2.17
2023-02-05T04:19:54.566Z,4.70
2023-02-05T04:22:24.383Z,2.77
2023-02-05T04:24:54.192Z,3.17
2023-02-05T04:27:24.330Z,2.10
2023-02-05T04:29:54.186Z,1.50
2023-02-05T04:32:23.953Z,2.37
2023-02-05T04:34:53.744Z,1.77
2023-02-05T04:37:24.976Z,1.53
2023-02-05T04:39:54.562Z,1.97
2023-02-05T04:42:24.388Z,1.60
2023-02-05T04:44:54.502Z,1.43
2023-02-05T04:47:24.069Z,1.83
2023-02-05T04:49:53.873Z,1.23
2023-02-05T04:52:23.698Z,1.83
2023-02-05T04:54:53.305Z,2.37
2023-02-05T04:57:24.362Z,1.60
2023-02-05T04:59:55.152Z,1.67
2023-02-05T05:02:25.741Z,1.50
2023-02-05T05:04:55.561Z,2.50
2023-02-05T05:07:25.396Z,1.57
2023-02-05T05:09:54.890Z,1.73
2023-02-05T05:12:24.722Z,2.10
2023-02-05T05:14:54.528Z,1.80
2023-02-05T05:17:24.324Z,2.12
2023-02-05T05:19:57.391Z,1.53
2023-02-05T05:22:27.208Z,1.80
2023-02-05T05:24:56.718Z,1.70
2023-02-05T05:27:27.303Z,2.02
2023-02-05T05:29:56.820Z,1.57
2023-02-05T05:32:26.364Z,2.87
2023-02-05T05:34:57.176Z,1.73
2023-02-05T05:40:26.320Z,2.10
2023-02-05T05:43:13.805Z,1.63
2023-02-05T05:45:43.423Z,2.07
2023-02-05T05:48:13.260Z,2.10
2023-02-05T05:50:42.733Z,2.00
2023-02-05T05:53:24.658Z,1.80
2023-02-05T05:55:54.254Z,3.00
2023-02-05T05:58:24.766Z,1.98
2023-02-05T06:00:55.159Z,2.33
2023-02-05T06:03:25.858Z,2.75
2023-02-05T06:05:55.471Z,2.73
2023-02-05T06:08:25.329Z,1.90
2023-02-05T06:10:54.977Z,3.57
2023-02-05T06:13:25.131Z,2.72
2023-02-05T06:15:54.933Z,2.10
2023-02-05T06:18:24.869Z,2.17
2023-02-05T06:20:54.348Z,3.57
2023-02-05T06:23:24.680Z,2.42
2023-02-05T06:25:54.166Z,2.60
2023-02-05T06:28:23.711Z,2.97
2023-02-05T06:30:53.385Z,5.03
2023-02-05T06:33:23.270Z,1.60
2023-02-05T06:35:52.897Z,2.10
2023-02-05T06:38:22.836Z,3.17
2023-02-05T06:40:52.433Z,2.33
2023-02-05T06:43:22.252Z,2.60
2023-02-05T06:45:51.936Z,2.37
2023-02-05T06:48:21.704Z,2.60
2023-02-05T06:50:51.351Z,3.33
2023-02-05T06:53:20.885Z,3.83
2023-02-05T06:55:51.533Z,2.73
2023-02-05T07:00:49.882Z,2.90
2023-02-05T07:03:19.578Z,3.90
2023-02-05T07:05:50.834Z,4.57
2023-02-05T07:08:20.640Z,3.85
2023-02-05T07:10:51.392Z,3.93
2023-02-05T07:13:21.253Z,4.47
2023-02-05T07:15:52.226Z,5.30
2023-02-05T07:18:21.860Z,4.70
2023-02-05T07:20:51.523Z,1.70
2023-02-05T07:23:21.346Z,4.28
2023-02-05T07:25:50.977Z,3.23
2023-02-05T07:28:20.479Z,3.57
2023-02-05T07:31:07.023Z,3.97
2023-02-05T07:33:37.055Z,2.40
2023-02-05T07:36:08.960Z,2.77
2023-02-05T07:38:39.088Z,3.40
2023-02-05T07:41:11.389Z,2.70
2023-02-05T07:43:41.319Z,3.10
2023-02-05T07:46:13.465Z,2.93
2023-02-05T07:48:43.502Z,3.97
2023-02-05T07:51:22.058Z,2.93
2023-02-05T07:53:52.462Z,3.07
2023-02-05T07:56:25.918Z,3.17
2023-02-05T07:58:55.443Z,2.60
2023-02-05T08:01:25.356Z,2.50
2023-02-05T08:03:54.988Z,3.17
2023-02-05T08:06:24.908Z,2.50
2023-02-05T08:08:56.256Z,3.00
2023-02-05T08:11:26.665Z,2.37
2023-02-05T08:13:56.157Z,2.97
2023-02-05T08:16:26.043Z,3.67
2023-02-05T08:18:55.559Z,3.93
2023-02-05T08:21:25.416Z,3.37
2023-02-05T08:23:56.623Z,2.83
2023-02-05T08:26:26.450Z,3.40
2023-02-05T08:28:56.680Z,3.47
2023-02-05T08:31:28.068Z,3.27
2023-02-05T08:34:00.268Z,2.53
2023-02-05T08:36:31.019Z,2.85
2023-02-05T08:39:02.352Z,3.08
2023-02-05T08:41:37.424Z,2.80
2023-02-05T08:46:47.538Z,3.27
2023-02-05T08:51:35.651Z,2.33
2023-02-05T08:54:06.949Z,3.70
2023-02-05T08:56:36.503Z,3.27
2023-02-05T08:59:08.263Z,3.13
2023-02-05T09:01:41.673Z,3.02
2023-02-05T09:04:20.990Z,3.27
2023-02-05T09:06:51.504Z,3.00
2023-02-05T09:09:21.308Z,2.97
2023-02-05T09:11:51.423Z,3.50
2023-02-05T09:14:21.016Z,3.17
2023-02-05T09:16:50.900Z,2.97
2023-02-05T09:19:20.638Z,2.42
2023-02-05T09:21:51.864Z,3.07
2023-02-05T09:24:22.380Z,2.87
2023-02-05T09:26:51.968Z,2.27
2023-02-05T09:29:21.945Z,3.12
2023-02-05T09:31:52.832Z,3.17
2023-02-05T09:34:22.729Z,2.95
2023-02-05T09:36:52.426Z,2.63
2023-02-05T09:40:01.995Z,2.77
2023-02-05T09:42:02.963Z,2.52
2023-02-05T09:44:47.734Z,2.47
2023-02-05T09:47:42.215Z,2.63
2023-02-05T09:50:22.357Z,2.53
2023-02-05T09:52:54.291Z,2.87
2023-02-05T09:55:33.107Z,1.87
2023-02-05T09:58:08.384Z,2.17
2023-02-05T10:00:46.994Z,1.47
2023-02-05T10:03:32.023Z,1.57
2023-02-05T10:06:11.196Z,1.60
2023-02-05T10:09:09.654Z,1.63
2023-02-05T10:11:45.201Z,1.37
2023-02-05T10:14:30.187Z,2.23
2023-02-05T10:17:29.597Z,1.87
2023-02-05T10:20:21.949Z,2.53
2023-02-05T10:23:07.009Z,2.10
2023-02-05T10:25:58.053Z,1.67
2023-02-05T10:29:00.358Z,2.30
2023-02-05T10:31:44.721Z,1.70
2023-02-05T10:34:39.342Z,2.15
2023-02-05T10:37:14.764Z,2.03
2023-02-05T10:39:45.770Z,1.20
2023-02-05T10:42:33.702Z,0.63
2023-02-05T10:45:09.090Z,1.47
2023-02-05T10:48:05.960Z,1.73
2023-02-05T10:50:41.621Z,1.23
2023-02-05T10:53:11.975Z,0.72
2023-02-05T10:55:41.585Z,1.63
2023-02-05T10:58:41.608Z,0.77
2023-02-05T11:01:16.609Z,1.17
2023-02-05T11:04:10.399Z,1.40
2023-02-05T11:06:44.549Z,0.93
2023-02-05T11:09:29.840Z,1.23
2023-02-05T11:12:09.695Z,0.60
2023-02-05T11:14:51.897Z,1.33
2023-02-05T11:17:36.534Z,0.98
2023-02-05T11:20:20.312Z,0.70
2023-02-05T11:22:50.162Z,0.50
2023-02-05T11:25:24.936Z,1.60
2023-02-05T11:27:59.410Z,1.27
2023-02-05T11:30:52.302Z,1.00
2023-02-05T11:33:28.893Z,1.27
2023-02-05T11:36:07.101Z,0.90
2023-02-05T11:38:57.150Z,0.70
2023-02-05T11:41:40.498Z,0.50
2023-02-05T11:44:13.420Z,0.43
2023-02-05T11:46:53.577Z,0.93
2023-02-05T11:49:25.805Z,0.53
2023-02-05T11:51:57.829Z,0.50
2023-02-05T11:54:47.502Z,0.40
2023-02-05T11:57:24.298Z,0.40
2023-02-05T12:00:23.238Z,0.60
2023-02-05T12:02:58.874Z,0.80
2023-02-05T12:05:31.703Z,0.50
2023-02-05T12:08:13.104Z,0.87
2023-02-05T12:11:03.314Z,0.60
2023-02-05T12:13:54.328Z,0.70
2023-02-05T12:16:44.968Z,0.63
2023-02-05T12:19:17.525Z,0.45
2023-02-05T12:21:50.613Z,0.97
2023-02-05T12:24:40.173Z,0.50
2023-02-05T12:27:18.499Z,1.27
2023-02-05T12:29:51.353Z,1.00
2023-02-05T12:32:39.113Z,1.43
2023-02-05T12:35:23.891Z,0.43
2023-02-05T12:38:32.450Z,0.90
2023-02-05T12:41:23.925Z,0.75
2023-02-05T12:43:58.195Z,0.77
2023-02-05T12:46:53.409Z,0.70
2023-02-05T12:49:25.928Z,1.07
2023-02-05T12:52:10.022Z,0.77
2023-02-05T12:54:49.848Z,0.83
2023-02-05T12:57:29.154Z,0.63
2023-02-05T13:00:07.743Z,1.63
2023-02-05T13:02:43.521Z,0.60
2023-02-05T13:05:34.906Z,1.00
2023-02-05T13:08:21.930Z,3.03
2023-02-05T13:10:57.599Z,1.57
2023-02-05T13:13:38.204Z,1.67
2023-02-05T13:16:14.280Z,1.05
2023-02-05T13:18:53.229Z,1.30
2023-02-05T13:21:41.092Z,1.50
2023-02-05T13:24:50.956Z,0.97
2023-02-05T13:27:42.677Z,0.60
2023-02-05T13:30:18.690Z,0.75
2023-02-05T13:32:51.820Z,0.93
2023-02-05T13:35:23.111Z,0.93
2023-02-05T13:37:55.682Z,1.30
2023-02-05T13:40:43.276Z,0.88
2023-02-05T13:43:24.680Z,1.03
2023-02-05T13:46:18.541Z,0.77
2023-02-05T13:49:02.839Z,1.22
2023-02-05T13:51:42.505Z,5.57
2023-02-05T13:54:33.354Z,6.45
2023-02-05T13:57:27.156Z,7.03
2023-02-05T14:00:00.376Z,2.12
2023-02-05T14:02:35.712Z,1.50
2023-02-05T14:05:08.291Z,1.30
2023-02-05T14:07:50.170Z,1.30
2023-02-05T14:10:37.030Z,1.30
2023-02-05T14:13:34.440Z,1.27
2023-02-05T14:16:27.025Z,2.43
2023-02-05T14:19:03.730Z,1.57
2023-02-05T14:21:37.914Z,2.17
2023-02-05T14:24:40.953Z,1.37
2023-02-05T14:27:28.784Z,3.66
2023-02-05T14:30:00.338Z,2.47
2023-02-05T14:32:34.664Z,2.47
2023-02-05T14:35:13.253Z,3.10
2023-02-05T14:37:47.700Z,2.67
2023-02-05T14:40:37.207Z,2.95
2023-02-05T14:43:24.096Z,2.70
2023-02-05T14:45:54.820Z,2.50
2023-02-05T14:48:27.662Z,4.28
2023-02-05T14:51:09.046Z,3.30
2023-02-05T14:53:39.662Z,2.50
2023-02-05T14:56:11.011Z,2.57
2023-02-05T14:58:47.971Z,1.70
2023-02-05T15:01:40.755Z,1.90
2023-02-05T15:04:31.305Z,2.17
2023-02-05T15:07:12.721Z,2.10
2023-02-05T15:09:54.604Z,1.93
2023-02-05T15:12:44.989Z,1.72
2023-02-05T15:15:37.803Z,2.50
2023-02-05T15:18:16.559Z,1.23
2023-02-05T15:20:49.989Z,1.25
2023-02-05T15:23:38.859Z,1.50
2023-02-05T15:26:17.701Z,1.33
2023-02-05T15:29:00.418Z,2.33
2023-02-05T15:31:34.366Z,1.73
2023-02-05T15:34:23.795Z,1.87
2023-02-05T15:37:02.193Z,2.10
2023-02-05T15:39:35.488Z,1.97
2023-02-05T15:42:08.010Z,1.72
2023-02-05T15:44:38.743Z,1.70
2023-02-05T15:47:12.489Z,1.47
2023-02-05T15:49:46.601Z,1.90
2023-02-05T15:52:19.560Z,1.80
2023-02-05T15:54:50.778Z,3.60
2023-02-05T15:57:23.321Z,2.30
2023-02-05T15:59:57.693Z,2.80
2023-02-05T16:02:29.947Z,2.70
2023-02-05T16:05:03.787Z,2.17
2023-02-05T16:07:45.332Z,1.57
2023-02-05T16:10:22.240Z,1.87
2023-02-05T16:13:07.483Z,1.60
2023-02-05T16:15:47.285Z,1.47
2023-02-05T16:18:21.863Z,2.27
2023-02-05T16:20:54.666Z,1.70
2023-02-05T16:23:29.501Z,1.72
2023-02-05T16:26:17.419Z,1.50
2023-02-05T16:28:53.431Z,1.57
2023-02-05T16:31:28.199Z,2.00
2023-02-05T16:34:18.185Z,2.83
2023-02-05T16:36:51.942Z,2.53
2023-02-05T16:39:29.021Z,2.25
2023-02-05T16:42:19.269Z,0.90
2023-02-05T16:44:52.332Z,2.27
2023-02-05T16:47:22.312Z,2.17
2023-02-05T16:50:00.212Z,2.00
2023-02-05T16:52:38.112Z,2.27
2023-02-05T16:55:10.732Z,1.70
2023-02-05T16:57:41.072Z,1.07
2023-02-05T17:00:27.648Z,1.80
2023-02-05T17:03:00.032Z,1.30
2023-02-05T17:05:33.607Z,1.73
2023-02-05T17:08:08.328Z,1.60
2023-02-05T17:10:59.245Z,2.20
2023-02-05T17:13:44.417Z,2.73
2023-02-05T17:16:27.451Z,2.70
2023-02-05T17:19:03.678Z,3.07
2023-02-05T17:21:37.844Z,3.07
2023-02-05T17:24:12.704Z,2.70
2023-02-05T17:26:43.837Z,3.87
2023-02-05T17:29:16.369Z,3.40
2023-02-05T17:31:49.276Z,4.13
2023-02-05T17:34:31.747Z,2.87
2023-02-05T17:37:17.242Z,3.27
2023-02-05T17:39:54.510Z,3.77
2023-02-05T17:42:34.169Z,3.20
2023-02-05T17:45:03.651Z,2.63
2023-02-05T17:47:33.144Z,2.37
2023-02-05T17:50:03.752Z,2.70
2023-02-05T17:52:40.958Z,2.10
2023-02-05T17:55:20.739Z,2.40
2023-02-05T17:57:50.253Z,2.50
2023-02-05T18:00:26.031Z,2.47
2023-02-05T18:02:55.877Z,1.97
2023-02-05T18:05:27.368Z,2.53
2023-02-05T18:07:59.749Z,2.77
2023-02-05T18:10:35.339Z,2.43
2023-02-05T18:13:09.142Z,3.00
2023-02-05T18:15:43.004Z,3.30
2023-02-05T18:18:13.753Z,3.43
2023-02-05T18:20:45.642Z,2.27
2023-02-05T18:23:27.550Z,2.90
2023-02-05T18:25:47.209Z,4.07
2023-02-05T18:28:16.935Z,4.33
2023-02-05T18:30:48.265Z,4.53
2023-02-05T18:33:19.899Z,4.33
2023-02-05T18:35:49.521Z,6.13
2023-02-05T18:38:21.368Z,4.87
2023-02-05T18:40:51.202Z,4.77
2023-02-05T18:43:20.816Z,4.17
2023-02-05T18:45:50.519Z,6.30
2023-02-05T18:48:25.007Z,5.75
2023-02-05T18:53:27.928Z,4.80
2023-02-05T18:56:09.858Z,5.95
2023-02-05T18:58:42.945Z,4.37
2023-02-05T19:01:18.424Z,5.23
2023-02-05T19:03:48.239Z,4.20
2023-02-05T19:06:21.045Z,4.37
2023-02-05T19:08:51.153Z,4.53
2023-02-05T19:11:24.127Z,3.13
2023-02-05T19:14:02.227Z,3.30
2023-02-05T19:16:34.569Z,3.50
2023-02-05T19:19:08.636Z,3.47
2023-02-05T19:21:38.468Z,4.20
2023-02-05T19:24:14.031Z,3.27
2023-02-05T19:26:44.246Z,3.73
2023-02-05T19:29:17.275Z,3.80
2023-02-05T19:31:47.498Z,6.50
2023-02-05T19:34:17.657Z,6.47
2023-02-05T19:36:48.950Z,5.62
2023-02-05T19:39:20.391Z,5.67
2023-02-05T19:41:51.562Z,6.23
2023-02-05T19:44:21.452Z,6.17
2023-02-05T19:46:51.303Z,6.27
2023-02-05T19:49:22.861Z,4.80
2023-02-05T19:51:55.477Z,6.30
2023-02-05T19:54:25.089Z,7.75
2023-02-05T19:56:54.608Z,5.33
2023-02-05T19:59:24.655Z,4.67
2023-02-05T20:01:54.802Z,5.67
2023-02-05T20:04:30.682Z,5.17
2023-02-05T20:07:01.335Z,7.37
2023-02-05T20:12:01.270Z,6.08
2023-02-05T20:14:30.919Z,7.90
2023-02-05T20:17:00.522Z,6.57
2023-02-05T20:19:32.023Z,7.30
2023-02-05T20:22:01.820Z,4.97
2023-02-05T20:24:31.490Z,6.20
2023-02-05T20:27:01.106Z,5.27
2023-02-05T20:29:48.807Z,4.60
2023-02-05T20:32:18.680Z,5.87
2023-02-05T20:34:50.120Z,4.63
2023-02-05T20:39:52.189Z,7.08
2023-02-05T20:42:21.684Z,6.07
2023-02-05T20:44:51.187Z,6.53
2023-02-05T20:47:20.768Z,6.37
2023-02-05T20:49:50.347Z,6.20
2023-02-05T20:52:20.139Z,6.00
2023-02-05T20:54:49.619Z,7.63
2023-02-05T20:57:20.501Z,7.27
2023-02-05T20:59:50.048Z,7.65
2023-02-05T21:02:20.942Z,6.90
2023-02-05T21:04:52.709Z,7.77
2023-02-05T21:07:24.325Z,8.35
2023-02-05T21:09:54.822Z,9.40
2023-02-05T21:12:31.466Z,9.83
2023-02-05T21:18:24.515Z,8.77
2023-02-05T21:20:55.020Z,9.68
2023-02-05T21:23:25.711Z,10.33
2023-02-05T21:25:55.612Z,11.60
2023-02-05T21:28:25.474Z,10.73
2023-02-05T21:30:58.023Z,10.27
2023-02-05T21:33:27.516Z,11.20
2023-02-05T21:35:57.082Z,9.87
2023-02-05T21:38:28.393Z,11.20
2023-02-05T21:40:58.840Z,9.33
2023-02-05T21:43:28.351Z,9.87
2023-02-05T21:46:03.196Z,11.37
2023-02-05T21:48:33.848Z,10.40
2023-02-05T21:51:11.856Z,11.83
2023-02-05T21:53:42.282Z,12.30
2023-02-05T21:58:42.317Z,11.00
2023-02-05T22:01:17.755Z,8.33
2023-02-05T22:03:52.678Z,8.50
2023-02-05T22:06:23.146Z,9.47
2023-02-05T22:08:53.876Z,9.50
2023-02-05T22:11:25.484Z,8.53
2023-02-05T22:13:56.447Z,9.97
2023-02-05T22:16:28.869Z,8.70
2023-02-05T22:19:00.520Z,8.63
2023-02-05T22:21:33.439Z,9.27
2023-02-05T22:24:05.433Z,9.53
2023-02-05T22:26:37.603Z,10.43
2023-02-05T22:29:10.537Z,11.60
2023-02-05T22:31:41.030Z,11.50
2023-02-05T22:34:11.322Z,15.72
2023-02-05T22:36:40.950Z,12.80
2023-02-05T22:39:10.964Z,12.03
2023-02-05T22:41:43.359Z,10.73
2023-02-05T22:44:13.275Z,11.43
2023-02-05T22:46:44.762Z,11.27
2023-02-05T22:49:15.496Z,9.18
2023-02-05T22:51:45.836Z,7.55
2023-02-05T22:54:16.030Z,11.40
2023-02-05T22:56:45.916Z,10.83
2023-02-05T22:59:15.790Z,10.67
2023-02-05T23:01:45.293Z,10.07
2023-02-05T23:04:14.862Z,9.70
2023-02-05T23:06:45.244Z,10.60
2023-02-05T23:09:19.138Z,9.15
2023-02-05T23:11:48.692Z,9.57
2023-02-05T23:14:18.830Z,9.40
2023-02-05T23:16:49.416Z,10.77
2023-02-05T23:19:22.228Z,10.40
2023-02-05T23:21:51.680Z,11.33
2023-02-05T23:24:21.327Z,11.77
2023-02-05T23:26:54.588Z,12.03
2023-02-05T23:29:24.285Z,11.53
2023-02-05T23:31:53.790Z,11.90
2023-02-05T23:34:23.475Z,10.93
2023-02-05T23:36:53.009Z,12.87
2023-02-05T23:39:22.851Z,14.80
2023-02-05T23:41:52.442Z,14.30
2023-02-05T23:44:22.319Z,14.28
2023-02-05T23:46:52.627Z,13.87
2023-02-05T23:49:23.188Z,13.47
2023-02-05T23:51:54.800Z,15.70
2023-02-05T23:54:24.917Z,13.87
2023-02-05T23:56:56.121Z,14.23
2023-02-05T23:59:25.883Z,14.73
